x

Cape Elizabeth- 45nm Nw Of Aberdeen, Wa (46041) Wave Buoy

11:50 - Tue 21st Feb 2017 All times are PST. -8 hours from GMT.

  • Sig Wave height 6.2ft
  • Swell Direction
  • Peak Period 16s
  • Average Period 6s
  • Wind
    13mph, 18mph gusts
  • Sea Temp 49°f
  • Aire Temp 45°f
  • Sea Pressure 1021.6mb
  • Cape Elizabeth- 45nm Nw Of Aberdeen, Wa
  • Cape Elizabeth- 45nm Nw Of Aberdeen, Wa

More Historic Weather Station data

Upgrade to MSW Pro to gain access to the past 30 days of data for over 8000 Wavebouys and Weather Stations around the globe.

Join Pro

Comparision Forecast

View Surf forecast
   
mar 02/21 11:50 6ft 16s 6s 13 18 mph 1021.6mb 49f 45f
10:50 6ft 11s 6s 16 18 mph 1021.2mb 49f 46f
9:50 6ft 11s 6s 16 20 mph 1020.7mb 49f 46f
8:50 5ft 11s 6s 9 13 mph 1020.4mb 49f 45f
7:50 6ft 11s 6s 16 22 mph 1020.1mb 50f 43f
6:50 6ft 11s 6s 20 25 mph 1019.6mb 50f 45f
5:50 6ft 11s 6s 16 20 mph 1018.9mb 50f 46f
4:50 6.5ft 11s 6s 18 22 mph 1018.2mb 50f 46f
3:50 7ft 11s 7s 18 22 mph 1017.7mb 50f 46f
2:50 7ft 11s 6s 18 22 mph 1016.9mb 50f 46f
1:50 7.5ft 11s 6s 18 22 mph 1015.9mb 50f 46f
12:50 7ft 12s 6s 20 22 mph 1015.3mb 50f 46f
11:50 7ft 11s 6s 20 25 mph 1014.9mb 50f 46f
10:50 7.5ft 11s 6s 22 27 mph 1013.7mb 49f 46f
9:50 7.5ft 11s 6s 25 27 mph 1012.3mb 49f 46f
8:50 7ft 11s 6s 22 29 mph 1010.9mb 49f 46f
7:50 7.5ft 11s 6s 22 27 mph 1009.6mb 49f 46f
6:50 7ft 11s 6s 22 27 mph 1008.4mb 49f 46f
5:50 7ft 11s 6s 22 25 mph 1007.5mb 49f 46f
4:50 7ft 11s 7s 22 25 mph 1006.6mb 49f 46f
3:50 6ft 10s 7s 22 25 mph 1006.3mb 49f 46f
2:50 6.5ft 11s 8s 18 22 mph 1006.3mb 49f 46f
1:50 7ft 13s 8s 13 16 mph 1006.7mb 49f 46f
12:50 7.5ft 11s 8s 13 16 mph 1006.5mb 49f 46f
lun 02/20 11:50 6ft 12s 8s 16 18 mph 1006mb 49f 46f
10:50 7ft 13s 9s 13 18 mph 1005.7mb 49f 46f
9:50 7.5ft 12s 9s 9 11 mph 1006.5mb 50f 46f
8:50 7.5ft 13s 10s 11 13 mph 1005.7mb 50f 46f
7:50 7ft 13s 9s 9 11 mph 1005.6mb 49f 46f
6:50 8ft 13s 9s 7 9 mph 1005.4mb 50f 46f
5:50 8ft 11s 9s 4 7 mph 1005.4mb 49f 45f
4:50 8ft 14s 9s 2 4 mph 1005.4mb 49f 45f
3:50 7.5ft 10s 9s 4 9 mph 1004.8mb 49f 45f
2:50 7.5ft 14s 9s 4 7 mph 1004mb 50f 47f
1:50 8ft 12s 9s 7 9 mph 1003.3mb 49f 46f
12:50 8.5ft 14s 9s 7 9 mph 1002.7mb 49f 46f
11:50 9ft 14s 9s 4 7 mph 1001.7mb 49f 45f
10:50 9ft 13s 9s 2 4 mph 1000.4mb 49f 46f
9:50 9ft 15s 9s 7 11 mph 999.4mb 49f 45f
8:50 9ft 15s 9s 9 13 mph 998.7mb 49f 45f
7:50 10.5ft 15s 9s 9 13 mph 998.1mb 49f 45f
6:50 11ft 13s 9s 13 18 mph 997.7mb 49f 45f
5:50 11.5ft 14s 9s 16 18 mph 998mb 49f 45f
4:50 12ft 15s 9s 16 22 mph 998.1mb 49f 45f
3:50 12.5ft 15s 10s 16 20 mph 998.9mb 49f 45f
2:50 11ft 14s 9s 16 18 mph 999.8mb 49f 45f
1:50 10.5ft 9s 8s 16 20 mph 1000.5mb 50f 45f
12:50 11ft 16s 9s 2 7 mph 1000.9mb 50f 45f
dom 02/19 11:50 10ft 16s 9s 7 9 mph 1001.2mb 50f 47f
10:50 10ft 16s 8s 4 7 mph 1001.2mb 50f 46f
9:50 11ft 17s 8s 7 9 mph 1000.9mb 50f 47f
8:50 10ft 17s 8s 7 9 mph 1000.3mb 50f 47f
7:50 10ft 17s 8s 4 7 mph 999.8mb 50f 46f
6:50 9ft 9s 7s 9 13 mph 999mb 50f 47f
5:50 9.5ft 9s 7s 13 18 mph 997.9mb 50f 47f
4:50 8.5ft 9s 7s 11 13 mph 996.9mb 50f 47f
3:50 8.5ft 8s 7s 13 16 mph 996mb 50f 47f
2:50 8ft 9s 6s 16 18 mph 995mb 50f 48f
1:50 9ft 8s 6s 22 27 mph 994.4mb 50f 48f
12:50 9ft 8s 7s 20 25 mph 994.3mb 50f 48f
11:50 8ft 7s 6s 22 27 mph 993.8mb 50f 48f
10:50 8ft 6s 6s 25 29 mph 993.1mb 50f 48f
9:50 7ft 6s 5s 29 38 mph 992.3mb 50f 46f
8:50 7ft 11s 6s 29 36 mph 991.5mb 50f 45f
7:50 7.5ft 12s 6s 29 36 mph 991.4mb 50f 45f
6:50 7ft 12s 6s 31 36 mph 991.1mb 50f 44f
5:50 6ft 11s 5s 27 34 mph 991.6mb 50f 44f
4:50 6ft 11s 6s 25 31 mph 992mb 50f 44f
3:50 6.5ft 12s 6s 25 29 mph 992.6mb 50f 44f
2:50 6ft 11s 7s 22 25 mph 993.3mb 50f 44f
1:50 6.5ft 11s 7s 22 27 mph 993.7mb 50f 44f
12:50 6ft 11s 8s 16 20 mph 994.3mb 50f 45f
sáb 02/18 11:50 6ft 11s 8s 9 11 mph 994.9mb 50f 45f
10:50 6ft 11s 8s 9 13 mph 995.2mb 50f 45f
9:50 6ft 11s 8s 11 13 mph 995.4mb 50f 45f
8:50 6ft 11s 8s 13 16 mph 995.5mb 49f 46f
7:50 6.5ft 12s 8s 9 11 mph 995.4mb 49f 46f
6:50 6ft 11s 8s 9 11 mph 995.6mb 49f 46f
5:50 5.5ft 11s 7s 7 11 mph 995.5mb 50f 46f
4:50 6.5ft 12s 8s 9 13 mph 995.6mb 50f 46f
3:50 6ft 12s 8s 13 16 mph 995.7mb 50f 47f
2:50 6ft 12s 8s 11 13 mph 995.5mb 50f 47f
1:50 6.5ft 12s 8s 11 13 mph 995.5mb 50f 47f
12:50 6.5ft 12s 8s 9 11 mph 996.1mb 50f 48f
11:50 6.5ft 11s 8s 7 11 mph 996.1mb 50f 48f
10:50 6ft 13s 8s 7 9 mph 996.2mb 49f 48f
9:50 6ft 12s 8s 4 7 mph 996.4mb 48f 47f
8:50 6ft 9s 7s 4 7 mph 996.4mb 48f 47f